Terminal Aerodrome Forecast
Issued by NWS

Home | Current Version | Previous Version | Text Only | Print | Product List | Glossary On
Versions: 1 2 3 4 5 6 7 8 9 10 11 12 13 14 15
000
FTUS44 KLZK 261730
TAFHRO
TAF
KHRO 261730Z 2618/2718 11004KT P6SM BKN100
     FM270000 14004KT P6SM BKN250
     FM270600 17003KT P6SM SCT250
     FM271100 00000KT 4SM BR BKN250
     FM271400 16005KT P6SM BKN250=

USA.gov is the U.S. government's official web portal to all federal, state and local government web resources and services.